sensor_id;sensor_type;location;lat;lon;timestamp;pressure;altitude;pressure_sealevel;temperature;humidity
26563;BME280;14217;50.986;5.826;2023-07-20T00:04:55;100821.09;;;27.39;36.26
26563;BME280;14217;50.986;5.826;2023-07-20T00:09:56;100817.38;;;27.40;35.95
26563;BME280;14217;50.986;5.826;2023-07-20T00:14:59;100821.66;;;27.43;35.96
26563;BME280;14217;50.986;5.826;2023-07-20T00:20:01;100816.53;;;27.40;36.26
26563;BME280;14217;50.986;5.826;2023-07-20T00:25:03;100813.59;;;27.43;36.15
26563;BME280;14217;50.986;5.826;2023-07-20T00:30:06;100817.28;;;27.42;36.18
26563;BME280;14217;50.986;5.826;2023-07-20T00:35:08;100810.03;;;27.42;36.35
26563;BME280;14217;50.986;5.826;2023-07-20T00:40:10;100810.03;;;27.42;36.26
26563;BME280;14217;50.986;5.826;2023-07-20T00:45:12;100815.53;;;27.41;36.20
26563;BME280;14217;50.986;5.826;2023-07-20T00:50:15;100813.97;;;27.38;36.40
26563;BME280;14217;50.986;5.826;2023-07-20T00:55:19;100815.94;;;27.36;36.39
26563;BME280;14217;50.986;5.826;2023-07-20T01:00:21;100816.28;;;27.43;36.30
26563;BME280;14217;50.986;5.826;2023-07-20T01:05:35;100818.38;;;27.39;36.14
26563;BME280;14217;50.986;5.826;2023-07-20T01:10:50;100812.28;;;27.37;36.33
26563;BME280;14217;50.986;5.826;2023-07-20T01:16:02;100819.22;;;27.40;36.48
26563;BME280;14217;50.986;5.826;2023-07-20T01:21:09;100814.81;;;27.38;36.46
26563;BME280;14217;50.986;5.826;2023-07-20T01:26:43;100825.34;;;27.42;36.14
26563;BME280;14217;50.986;5.826;2023-07-20T01:31:52;100819.22;;;27.40;36.31
26563;BME280;14217;50.986;5.826;2023-07-20T01:36:56;100825.47;;;27.40;36.35
26563;BME280;14217;50.986;5.826;2023-07-20T01:41:59;100816.66;;;27.38;36.54
26563;BME280;14217;50.986;5.826;2023-07-20T01:47:02;100820.94;;;27.41;36.17
26563;BME280;14217;50.986;5.826;2023-07-20T01:52:04;100818.25;;;27.41;36.08
26563;BME280;14217;50.986;5.826;2023-07-20T01:57:06;100819.13;;;27.41;36.12
26563;BME280;14217;50.986;5.826;2023-07-20T02:02:08;100817.38;;;27.40;36.43
26563;BME280;14217;50.986;5.826;2023-07-20T02:07:11;100813.72;;;27.41;36.28
26563;BME280;14217;50.986;5.826;2023-07-20T02:12:13;100805.06;;;27.37;36.38
26563;BME280;14217;50.986;5.826;2023-07-20T02:17:15;100808.59;;;27.38;36.23
26563;BME280;14217;50.986;5.826;2023-07-20T02:22:17;100802.47;;;27.36;36.16
26563;BME280;14217;50.986;5.826;2023-07-20T02:27:19;100810.31;;;27.39;36.12
26563;BME280;14217;50.986;5.826;2023-07-20T02:32:21;100814.13;;;27.36;36.44
26563;BME280;14217;50.986;5.826;2023-07-20T02:37:23;100807.00;;;27.35;36.30
26563;BME280;14217;50.986;5.826;2023-07-20T02:42:25;100813.84;;;27.40;36.16
26563;BME280;14217;50.986;5.826;2023-07-20T02:47:28;100820.19;;;27.38;36.34
26563;BME280;14217;50.986;5.826;2023-07-20T02:52:31;100824.16;;;27.34;36.18
26563;BME280;14217;50.986;5.826;2023-07-20T02:57:33;100822.88;;;27.38;36.54
26563;BME280;14217;50.986;5.826;2023-07-20T03:02:35;100824.72;;;27.38;36.32
26563;BME280;14217;50.986;5.826;2023-07-20T03:07:37;100830.97;;;27.38;36.38
26563;BME280;14217;50.986;5.826;2023-07-20T03:12:39;100836.50;;;27.37;36.38
26563;BME280;14217;50.986;5.826;2023-07-20T03:17:41;100840.88;;;27.38;36.25
26563;BME280;14217;50.986;5.826;2023-07-20T03:22:44;100838.19;;;27.38;36.30
26563;BME280;14217;50.986;5.826;2023-07-20T03:27:46;100848.22;;;27.36;36.39
26563;BME280;14217;50.986;5.826;2023-07-20T03:32:48;100849.09;;;27.36;36.40
26563;BME280;14217;50.986;5.826;2023-07-20T03:37:50;100851.06;;;27.34;36.31
26563;BME280;14217;50.986;5.826;2023-07-20T03:42:52;100846.66;;;27.33;36.28
26563;BME280;14217;50.986;5.826;2023-07-20T03:47:54;100855.44;;;27.35;36.45
26563;BME280;14217;50.986;5.826;2023-07-20T03:52:56;100854.72;;;27.33;36.33
26563;BME280;14217;50.986;5.826;2023-07-20T03:57:58;100857.28;;;27.35;36.53
26563;BME280;14217;50.986;5.826;2023-07-20T04:03:00;100857.03;;;27.38;36.41
26563;BME280;14217;50.986;5.826;2023-07-20T04:08:03;100857.16;;;27.36;36.59
26563;BME280;14217;50.986;5.826;2023-07-20T04:13:05;100862.66;;;27.35;36.57
26563;BME280;14217;50.986;5.826;2023-07-20T04:18:07;100860.31;;;27.42;36.87
26563;BME280;14217;50.986;5.826;2023-07-20T04:23:09;100858.75;;;27.39;36.80
26563;BME280;14217;50.986;5.826;2023-07-20T04:28:11;100859.25;;;27.33;36.98
26563;BME280;14217;50.986;5.826;2023-07-20T04:33:13;100863.63;;;27.34;36.88
26563;BME280;14217;50.986;5.826;2023-07-20T04:38:15;100866.22;;;27.35;36.92
26563;BME280;14217;50.986;5.826;2023-07-20T04:43:19;100868.28;;;27.32;36.94
26563;BME280;14217;50.986;5.826;2023-07-20T04:48:21;100859.63;;;27.28;37.14
26563;BME280;14217;50.986;5.826;2023-07-20T04:53:23;100864.63;;;27.33;36.86
26563;BME280;14217;50.986;5.826;2023-07-20T04:58:25;100870.84;;;27.33;37.06
26563;BME280;14217;50.986;5.826;2023-07-20T05:03:27;100871.69;;;27.34;36.76
26563;BME280;14217;50.986;5.826;2023-07-20T05:08:30;100872.81;;;27.31;36.81
26563;BME280;14217;50.986;5.826;2023-07-20T05:13:32;100873.16;;;27.38;36.78
26563;BME280;14217;50.986;5.826;2023-07-20T05:18:34;100875.50;;;27.31;36.97
26563;BME280;14217;50.986;5.826;2023-07-20T05:23:36;100878.69;;;27.36;36.54
26563;BME280;14217;50.986;5.826;2023-07-20T05:28:38;100880.66;;;27.34;36.94
26563;BME280;14217;50.986;5.826;2023-07-20T05:33:40;100874.16;;;27.37;36.50
26563;BME280;14217;50.986;5.826;2023-07-20T05:38:42;100883.06;;;27.37;36.56
26563;BME280;14217;50.986;5.826;2023-07-20T05:43:45;100884.06;;;27.36;36.82
26563;BME280;14217;50.986;5.826;2023-07-20T05:48:47;100890.41;;;27.35;36.59
26563;BME280;14217;50.986;5.826;2023-07-20T05:53:49;100897.75;;;27.33;36.50
26563;BME280;14217;50.986;5.826;2023-07-20T05:58:52;100886.28;;;27.31;36.74
26563;BME280;14217;50.986;5.826;2023-07-20T06:03:54;100894.59;;;27.28;36.99
26563;BME280;14217;50.986;5.826;2023-07-20T06:08:56;100906.81;;;27.32;36.93
26563;BME280;14217;50.986;5.826;2023-07-20T06:13:59;100901.44;;;27.32;37.20
26563;BME280;14217;50.986;5.826;2023-07-20T06:19:01;100907.28;;;27.37;36.88
26563;BME280;14217;50.986;5.826;2023-07-20T06:24:03;100899.97;;;27.40;36.88
26563;BME280;14217;50.986;5.826;2023-07-20T06:29:05;100906.03;;;27.64;36.40
26563;BME280;14217;50.986;5.826;2023-07-20T06:34:11;100898.25;;;27.82;36.10
26563;BME280;14217;50.986;5.826;2023-07-20T06:39:13;100901.94;;;27.81;36.08
26563;BME280;14217;50.986;5.826;2023-07-20T06:44:19;100893.22;;;27.89;35.95
26563;BME280;14217;50.986;5.826;2023-07-20T06:49:27;100894.81;;;27.80;36.03
26563;BME280;14217;50.986;5.826;2023-07-20T06:54:30;100906.31;;;27.82;35.97
26563;BME280;14217;50.986;5.826;2023-07-20T06:59:36;100906.44;;;27.81;35.93
26563;BME280;14217;50.986;5.826;2023-07-20T07:04:42;100908.06;;;27.72;39.52
26563;BME280;14217;50.986;5.826;2023-07-20T07:09:44;100914.41;;;27.82;39.27
26563;BME280;14217;50.986;5.826;2023-07-20T07:14:46;100916.97;;;27.84;39.05
26563;BME280;14217;50.986;5.826;2023-07-20T07:19:48;100919.22;;;27.67;38.13
26563;BME280;14217;50.986;5.826;2023-07-20T07:24:50;100916.13;;;27.28;39.52
26563;BME280;14217;50.986;5.826;2023-07-20T07:29:52;100914.28;;;27.17;39.55
26563;BME280;14217;50.986;5.826;2023-07-20T07:34:55;100923.41;;;27.15;39.54
26563;BME280;14217;50.986;5.826;2023-07-20T07:39:57;100934.66;;;27.09;39.28
26563;BME280;14217;50.986;5.826;2023-07-20T07:44:59;100937.09;;;27.01;39.67
26563;BME280;14217;50.986;5.826;2023-07-20T07:50:02;100936.75;;;27.05;39.51
26563;BME280;14217;50.986;5.826;2023-07-20T07:55:04;100931.50;;;27.04;39.64
26563;BME280;14217;50.986;5.826;2023-07-20T08:00:07;100935.88;;;27.05;39.11
26563;BME280;14217;50.986;5.826;2023-07-20T08:05:14;100946.88;;;27.13;39.10
26563;BME280;14217;50.986;5.826;2023-07-20T08:10:16;100943.16;;;27.27;38.76
26563;BME280;14217;50.986;5.826;2023-07-20T08:15:18;100954.47;;;27.19;38.93
26563;BME280;14217;50.986;5.826;2023-07-20T08:20:20;100937.75;;;27.38;38.60
26563;BME280;14217;50.986;5.826;2023-07-20T08:25:28;100939.94;;;27.44;38.22
26563;BME280;14217;50.986;5.826;2023-07-20T08:30:46;100943.47;;;27.45;38.23
26563;BME280;14217;50.986;5.826;2023-07-20T08:35:49;100939.94;;;27.44;38.09
26563;BME280;14217;50.986;5.826;2023-07-20T08:40:51;100935.16;;;27.48;37.96
26563;BME280;14217;50.986;5.826;2023-07-20T08:45:55;100941.41;;;27.48;37.98
26563;BME280;14217;50.986;5.826;2023-07-20T08:50:58;100943.94;;;27.61;37.55
26563;BME280;14217;50.986;5.826;2023-07-20T08:56:02;100938.78;;;27.69;37.59
26563;BME280;14217;50.986;5.826;2023-07-20T09:01:04;100940.88;;;27.77;37.33
26563;BME280;14217;50.986;5.826;2023-07-20T09:06:07;100940.88;;;27.66;37.45
26563;BME280;14217;50.986;5.826;2023-07-20T09:11:11;100929.25;;;27.65;37.39
26563;BME280;14217;50.986;5.826;2023-07-20T09:16:14;100932.34;;;27.61;37.56
26563;BME280;14217;50.986;5.826;2023-07-20T09:21:19;100932.78;;;27.66;37.18
26563;BME280;14217;50.986;5.826;2023-07-20T09:26:21;100928.06;;;27.58;37.34
26563;BME280;14217;50.986;5.826;2023-07-20T09:31:24;100929.59;;;27.72;36.94
26563;BME280;14217;50.986;5.826;2023-07-20T09:36:29;100932.28;;;27.72;37.04
26563;BME280;14217;50.986;5.826;2023-07-20T09:41:42;100939.78;;;27.68;37.30
26563;BME280;14217;50.986;5.826;2023-07-20T09:46:50;100936.22;;;27.68;36.93
26563;BME280;14217;50.986;5.826;2023-07-20T09:51:57;100929.47;;;27.73;36.97
26563;BME280;14217;50.986;5.826;2023-07-20T09:57:00;100918.00;;;27.71;37.17
26563;BME280;14217;50.986;5.826;2023-07-20T10:02:12;100915.41;;;27.70;37.12
26563;BME280;14217;50.986;5.826;2023-07-20T10:07:19;100919.84;;;27.71;36.82
26563;BME280;14217;50.986;5.826;2023-07-20T10:12:23;100920.44;;;27.74;36.85
26563;BME280;14217;50.986;5.826;2023-07-20T10:17:26;100917.88;;;27.73;36.89
26563;BME280;14217;50.986;5.826;2023-07-20T10:22:31;100908.06;;;27.72;36.92
26563;BME280;14217;50.986;5.826;2023-07-20T10:27:42;100905.38;;;27.72;36.98
26563;BME280;14217;50.986;5.826;2023-07-20T10:32:45;100903.78;;;27.69;37.00
26563;BME280;14217;50.986;5.826;2023-07-20T10:37:51;100906.25;;;27.72;36.81
26563;BME280;14217;50.986;5.826;2023-07-20T10:42:58;100903.69;;;27.71;36.96
26563;BME280;14217;50.986;5.826;2023-07-20T10:48:03;100890.34;;;27.69;36.86
26563;BME280;14217;50.986;5.826;2023-07-20T10:53:13;100887.53;;;27.71;36.95
26563;BME280;14217;50.986;5.826;2023-07-20T10:58:16;100882.88;;;27.73;36.92
26563;BME280;14217;50.986;5.826;2023-07-20T11:03:29;100884.84;;;27.71;36.78
26563;BME280;14217;50.986;5.826;2023-07-20T11:08:39;100873.22;;;27.70;36.93
26563;BME280;14217;50.986;5.826;2023-07-20T11:14:00;100884.94;;;27.69;36.77
26563;BME280;14217;50.986;5.826;2023-07-20T11:19:04;100883.72;;;27.73;36.74
26563;BME280;14217;50.986;5.826;2023-07-20T11:24:07;100886.91;;;27.67;36.85
26563;BME280;14217;50.986;5.826;2023-07-20T11:29:09;100876.75;;;27.71;36.95
26563;BME280;14217;50.986;5.826;2023-07-20T11:34:31;100874.91;;;27.71;36.84
26563;BME280;14217;50.986;5.826;2023-07-20T11:39:33;100860.84;;;27.68;36.67
26563;BME280;14217;50.986;5.826;2023-07-20T11:44:36;100871.25;;;27.72;36.56
26563;BME280;14217;50.986;5.826;2023-07-20T11:49:42;100868.81;;;27.69;36.83
26563;BME280;14217;50.986;5.826;2023-07-20T11:54:45;100859.59;;;27.72;36.64
26563;BME280;14217;50.986;5.826;2023-07-20T11:59:57;100854.38;;;27.70;36.63
26563;BME280;14217;50.986;5.826;2023-07-20T12:05:02;100845.41;;;27.70;36.52
26563;BME280;14217;50.986;5.826;2023-07-20T12:10:09;100846.88;;;27.74;36.75
26563;BME280;14217;50.986;5.826;2023-07-20T12:15:25;100844.56;;;27.69;36.47
26563;BME280;14217;50.986;5.826;2023-07-20T12:20:36;100843.84;;;27.67;36.32
26563;BME280;14217;50.986;5.826;2023-07-20T12:25:42;100832.97;;;27.57;36.41
26563;BME280;14217;50.986;5.826;2023-07-20T12:30:45;100829.72;;;27.54;36.16
26563;BME280;14217;50.986;5.826;2023-07-20T12:35:48;100838.69;;;27.43;35.99
26563;BME280;14217;50.986;5.826;2023-07-20T12:40:50;100826.53;;;27.49;35.96
26563;BME280;14217;50.986;5.826;2023-07-20T12:45:52;100832.91;;;27.48;35.76
26563;BME280;14217;50.986;5.826;2023-07-20T12:50:54;100828.66;;;27.45;35.82
26563;BME280;14217;50.986;5.826;2023-07-20T12:55:57;100834.09;;;27.55;35.62
26563;BME280;14217;50.986;5.826;2023-07-20T13:00:59;100820.91;;;27.52;35.54
26563;BME280;14217;50.986;5.826;2023-07-20T13:06:02;100813.22;;;27.47;35.15
26563;BME280;14217;50.986;5.826;2023-07-20T13:11:07;100810.28;;;27.50;35.55
26563;BME280;14217;50.986;5.826;2023-07-20T13:16:09;100806.97;;;27.47;35.35
26563;BME280;14217;50.986;5.826;2023-07-20T13:21:11;100794.19;;;27.39;35.04
26563;BME280;14217;50.986;5.826;2023-07-20T13:26:15;100800.75;;;27.46;34.75
26563;BME280;14217;50.986;5.826;2023-07-20T13:31:17;100800.50;;;27.49;35.01
26563;BME280;14217;50.986;5.826;2023-07-20T13:36:19;100791.31;;;27.52;34.87
26563;BME280;14217;50.986;5.826;2023-07-20T13:41:23;100799.88;;;27.46;34.25
26563;BME280;14217;50.986;5.826;2023-07-20T13:46:26;100798.16;;;27.45;34.33
26563;BME280;14217;50.986;5.826;2023-07-20T13:51:31;100786.81;;;27.41;34.66
26563;BME280;14217;50.986;5.826;2023-07-20T13:56:34;100789.38;;;27.43;34.78
26563;BME280;14217;50.986;5.826;2023-07-20T14:01:36;100781.97;;;27.35;34.11
26563;BME280;14217;50.986;5.826;2023-07-20T14:06:39;100761.22;;;27.47;34.13
26563;BME280;14217;50.986;5.826;2023-07-20T14:11:41;100765.75;;;27.46;34.32
26563;BME280;14217;50.986;5.826;2023-07-20T14:16:46;100762.94;;;27.48;34.73
26563;BME280;14217;50.986;5.826;2023-07-20T14:21:49;100759.00;;;27.52;34.51
26563;BME280;14217;50.986;5.826;2023-07-20T14:26:51;100754.75;;;27.49;34.46
26563;BME280;14217;50.986;5.826;2023-07-20T14:31:53;100753.16;;;27.47;34.54
26563;BME280;14217;50.986;5.826;2023-07-20T14:36:59;100749.22;;;27.51;34.38
26563;BME280;14217;50.986;5.826;2023-07-20T14:42:01;100742.47;;;27.56;34.35
26563;BME280;14217;50.986;5.826;2023-07-20T14:47:05;100743.31;;;27.57;34.42
26563;BME280;14217;50.986;5.826;2023-07-20T14:52:16;100738.94;;;27.56;34.55
26563;BME280;14217;50.986;5.826;2023-07-20T14:57:19;100733.69;;;27.54;34.68
26563;BME280;14217;50.986;5.826;2023-07-20T15:02:22;100725.31;;;27.57;34.45
26563;BME280;14217;50.986;5.826;2023-07-20T15:07:25;100718.69;;;27.62;34.47
26563;BME280;14217;50.986;5.826;2023-07-20T15:12:27;100713.00;;;27.55;34.62
26563;BME280;14217;50.986;5.826;2023-07-20T15:17:29;100705.63;;;27.57;34.43
26563;BME280;14217;50.986;5.826;2023-07-20T15:22:32;100706.50;;;27.57;34.52
26563;BME280;14217;50.986;5.826;2023-07-20T15:27:35;100708.22;;;27.58;34.51
26563;BME280;14217;50.986;5.826;2023-07-20T15:32:37;100699.00;;;27.61;34.36
26563;BME280;14217;50.986;5.826;2023-07-20T15:37:42;100696.59;;;27.58;34.30
26563;BME280;14217;50.986;5.826;2023-07-20T15:42:44;100699.84;;;27.62;34.54
26563;BME280;14217;50.986;5.826;2023-07-20T15:47:54;100699.69;;;27.53;34.79
26563;BME280;14217;50.986;5.826;2023-07-20T15:52:56;100688.03;;;27.53;34.80
26563;BME280;14217;50.986;5.826;2023-07-20T15:57:59;100692.19;;;27.57;34.72
26563;BME280;14217;50.986;5.826;2023-07-20T16:03:01;100686.34;;;27.52;34.59
26563;BME280;14217;50.986;5.826;2023-07-20T16:08:04;100689.03;;;27.52;34.68
26563;BME280;14217;50.986;5.826;2023-07-20T16:13:07;100683.13;;;27.58;34.55
26563;BME280;14217;50.986;5.826;2023-07-20T16:18:09;100679.72;;;27.56;34.79
26563;BME280;14217;50.986;5.826;2023-07-20T16:23:12;100673.53;;;27.65;34.51
26563;BME280;14217;50.986;5.826;2023-07-20T16:28:14;100660.69;;;27.69;34.34
26563;BME280;14217;50.986;5.826;2023-07-20T16:33:16;100658.84;;;27.69;34.64
26563;BME280;14217;50.986;5.826;2023-07-20T16:38:18;100661.72;;;27.56;34.76
26563;BME280;14217;50.986;5.826;2023-07-20T16:43:20;100660.88;;;27.56;34.69
26563;BME280;14217;50.986;5.826;2023-07-20T16:48:25;100661.09;;;27.64;34.79
26563;BME280;14217;50.986;5.826;2023-07-20T16:53:28;100667.44;;;27.63;34.72
26563;BME280;14217;50.986;5.826;2023-07-20T16:58:30;100653.25;;;27.61;35.08
26563;BME280;14217;50.986;5.826;2023-07-20T17:03:33;100661.47;;;27.60;34.71
26563;BME280;14217;50.986;5.826;2023-07-20T17:08:36;100658.63;;;27.61;34.87
26563;BME280;14217;50.986;5.826;2023-07-20T17:13:38;100647.16;;;27.59;35.06
26563;BME280;14217;50.986;5.826;2023-07-20T17:18:40;100641.56;;;27.51;33.83
26563;BME280;14217;50.986;5.826;2023-07-20T17:23:43;100660.16;;;27.54;33.83
26563;BME280;14217;50.986;5.826;2023-07-20T17:28:48;100659.16;;;27.55;33.74
26563;BME280;14217;50.986;5.826;2023-07-20T17:33:50;100648.69;;;27.52;34.39
26563;BME280;14217;50.986;5.826;2023-07-20T17:38:52;100644.25;;;27.51;34.00
26563;BME280;14217;50.986;5.826;2023-07-20T17:43:55;100641.34;;;27.54;33.76
26563;BME280;14217;50.986;5.826;2023-07-20T17:48:58;100639.16;;;27.48;33.85
26563;BME280;14217;50.986;5.826;2023-07-20T17:54:00;100636.91;;;27.53;34.07
26563;BME280;14217;50.986;5.826;2023-07-20T17:59:02;100637.91;;;27.52;34.33
26563;BME280;14217;50.986;5.826;2023-07-20T18:04:05;100635.47;;;27.49;34.56
26563;BME280;14217;50.986;5.826;2023-07-20T18:09:09;100646.97;;;27.51;34.50
26563;BME280;14217;50.986;5.826;2023-07-20T18:14:11;100646.97;;;27.51;34.80
26563;BME280;14217;50.986;5.826;2023-07-20T18:19:14;100628.53;;;27.46;34.54
26563;BME280;14217;50.986;5.826;2023-07-20T18:24:16;100646.75;;;27.43;34.78
26563;BME280;14217;50.986;5.826;2023-07-20T18:29:19;100636.19;;;27.51;34.74
26563;BME280;14217;50.986;5.826;2023-07-20T18:34:21;100657.34;;;27.55;34.94
26563;BME280;14217;50.986;5.826;2023-07-20T18:39:26;100666.66;;;27.51;35.49
26563;BME280;14217;50.986;5.826;2023-07-20T18:44:28;100675.00;;;27.48;35.25
26563;BME280;14217;50.986;5.826;2023-07-20T18:49:31;100699.59;;;27.44;36.22
26563;BME280;14217;50.986;5.826;2023-07-20T18:54:33;100705.59;;;27.47;35.49
26563;BME280;14217;50.986;5.826;2023-07-20T18:59:35;100717.06;;;27.49;35.14
26563;BME280;14217;50.986;5.826;2023-07-20T19:04:37;100725.41;;;27.46;35.20
26563;BME280;14217;50.986;5.826;2023-07-20T19:09:39;100735.81;;;27.40;35.33
26563;BME280;14217;50.986;5.826;2023-07-20T19:14:41;100726.13;;;27.48;35.50
26563;BME280;14217;50.986;5.826;2023-07-20T19:19:44;100742.38;;;27.47;35.65
26563;BME280;14217;50.986;5.826;2023-07-20T19:24:46;100725.28;;;27.48;36.11
26563;BME280;14217;50.986;5.826;2023-07-20T19:29:49;100725.16;;;27.49;36.29
26563;BME280;14217;50.986;5.826;2023-07-20T19:34:51;100709.38;;;27.45;36.73
26563;BME280;14217;50.986;5.826;2023-07-20T19:39:53;100709.25;;;27.46;36.82
26563;BME280;14217;50.986;5.826;2023-07-20T19:44:55;100706.69;;;27.45;37.40
26563;BME280;14217;50.986;5.826;2023-07-20T19:49:57;100711.94;;;27.46;37.83
26563;BME280;14217;50.986;5.826;2023-07-20T19:54:59;100710.09;;;27.47;38.12
26563;BME280;14217;50.986;5.826;2023-07-20T20:00:05;100719.63;;;27.51;38.13
26563;BME280;14217;50.986;5.826;2023-07-20T20:05:13;100719.16;;;27.46;38.16
26563;BME280;14217;50.986;5.826;2023-07-20T20:10:19;100719.16;;;27.46;38.26
26563;BME280;14217;50.986;5.826;2023-07-20T20:15:21;100717.31;;;27.46;38.21
26563;BME280;14217;50.986;5.826;2023-07-20T20:20:23;100712.56;;;27.38;39.23
26563;BME280;14217;50.986;5.826;2023-07-20T20:25:25;100700.25;;;27.36;39.02
26563;BME280;14217;50.986;5.826;2023-07-20T20:30:27;100697.50;;;27.26;40.29
26563;BME280;14217;50.986;5.826;2023-07-20T20:35:30;100688.31;;;27.29;39.70
26563;BME280;14217;50.986;5.826;2023-07-20T20:40:33;100696.88;;;27.23;39.83
26563;BME280;14217;50.986;5.826;2023-07-20T20:45:35;100688.81;;;27.23;39.86
26563;BME280;14217;50.986;5.826;2023-07-20T20:50:39;100690.41;;;27.25;39.60
26563;BME280;14217;50.986;5.826;2023-07-20T20:55:45;100686.78;;;27.36;39.49
26563;BME280;14217;50.986;5.826;2023-07-20T21:00:48;100691.66;;;27.42;38.90
26563;BME280;14217;50.986;5.826;2023-07-20T21:05:50;100678.59;;;27.37;39.02
26563;BME280;14217;50.986;5.826;2023-07-20T21:10:52;100677.75;;;27.37;38.83
26563;BME280;14217;50.986;5.826;2023-07-20T21:15:55;100683.84;;;27.39;38.67
26563;BME280;14217;50.986;5.826;2023-07-20T21:20:57;100680.16;;;27.40;38.52
26563;BME280;14217;50.986;5.826;2023-07-20T21:26:00;100677.47;;;27.40;38.51
26563;BME280;14217;50.986;5.826;2023-07-20T21:31:05;100672.22;;;27.38;38.40
26563;BME280;14217;50.986;5.826;2023-07-20T21:36:08;100677.59;;;27.38;38.12
26563;BME280;14217;50.986;5.826;2023-07-20T21:41:10;100684.81;;;27.38;38.41
26563;BME280;14217;50.986;5.826;2023-07-20T21:46:12;100682.84;;;27.40;38.03
26563;BME280;14217;50.986;5.826;2023-07-20T21:51:15;100686.41;;;27.41;38.02
26563;BME280;14217;50.986;5.826;2023-07-20T21:56:19;100679.94;;;27.43;38.01
26563;BME280;14217;50.986;5.826;2023-07-20T22:01:21;100677.47;;;27.40;37.89
26563;BME280;14217;50.986;5.826;2023-07-20T22:06:43;100682.47;;;27.45;37.96
26563;BME280;14217;50.986;5.826;2023-07-20T22:11:50;100672.81;;;27.42;37.94
26563;BME280;14217;50.986;5.826;2023-07-20T22:16:53;100668.16;;;27.44;37.92
26563;BME280;14217;50.986;5.826;2023-07-20T22:21:55;100669.16;;;27.43;37.72
26563;BME280;14217;50.986;5.826;2023-07-20T22:26:59;100663.50;;;27.46;37.74
26563;BME280;14217;50.986;5.826;2023-07-20T22:32:03;100664.63;;;27.44;37.55
26563;BME280;14217;50.986;5.826;2023-07-20T22:37:06;100666.59;;;27.42;37.81
26563;BME280;14217;50.986;5.826;2023-07-20T22:42:08;100663.06;;;27.41;37.65
26563;BME280;14217;50.986;5.826;2023-07-20T22:47:10;100660.50;;;27.40;37.80
26563;BME280;14217;50.986;5.826;2023-07-20T22:52:12;100658.66;;;27.40;37.91
26563;BME280;14217;50.986;5.826;2023-07-20T22:57:15;100650.44;;;27.42;37.60
26563;BME280;14217;50.986;5.826;2023-07-20T23:02:17;100648.59;;;27.42;37.73
26563;BME280;14217;50.986;5.826;2023-07-20T23:07:20;100642.38;;;27.42;37.75
26563;BME280;14217;50.986;5.826;2023-07-20T23:12:22;100638.69;;;27.43;37.73
26563;BME280;14217;50.986;5.826;2023-07-20T23:17:25;100629.66;;;27.44;37.77
26563;BME280;14217;50.986;5.826;2023-07-20T23:22:27;100624.50;;;27.41;37.67
26563;BME280;14217;50.986;5.826;2023-07-20T23:27:29;100620.84;;;27.42;37.53
26563;BME280;14217;50.986;5.826;2023-07-20T23:32:31;100610.94;;;27.42;37.60
26563;BME280;14217;50.986;5.826;2023-07-20T23:37:33;100610.81;;;27.44;37.55
26563;BME280;14217;50.986;5.826;2023-07-20T23:42:35;100608.66;;;27.37;37.71
26563;BME280;14217;50.986;5.826;2023-07-20T23:47:38;100612.91;;;27.40;37.62
26563;BME280;14217;50.986;5.826;2023-07-20T23:52:40;100601.91;;;27.43;37.53
26563;BME280;14217;50.986;5.826;2023-07-20T23:57:43;100608.13;;;27.44;37.41
